Terminal Aerodrome Forecast
Issued by NWS

Home | Current Version | Previous Version | Text Only | Print | Product List | Glossary On
Versions: 1 2 3 4 5 6 7 8 9 10 11 12 13 14 15 16 17 18 19 20 21 22 23 24 25 26 27 28
000
FTAK31 PAJK 221139
TAFAWG
TAF
PAWG 221139Z 2212/2312 VRB03KT 6SM -SHRA BKN035 OVC050
      TEMPO 2214/2217 5SM -RA BR BKN025 OVC060
     FM222000 29004KT P6SM VCSH SCT025 BKN050
     FM230800 12010KT 6SM -RA OVC050
     AMD LTD TO CLD VIS AND WIND 2212/2215=

USA.gov is the U.S. government's official web portal to all federal, state and local government web resources and services.